Olympia Regional Airport Olympia US
ICAO: KOLM
IATA: OLM
Category: Medium
Scheduled Services: No

Elevation: 209 ft
TransAlt. 18000 ft.

Airport Communications:
SEATTLE APP/DEP:121.1
ASOS:135.725
ATIS:135.375
CTAF:124.4
GND:121.6
TWR:124.4
UNICOM:122.95

KOLM Zoom In..

If you have problems with the map follow the link
https://www.worldairports.se/pages/airport.php?
ICAO=KOLM

Runways:

(A) RW 08 length 4157 ft width 150 ft
---- / hdg 85

(B) RW 17 length 5500 ft width 150 ft
ILS 111.90 / hdg 172

(C) RW 26 length 4157 ft width 150 ft
---- / hdg 265

(D) RW 35 length 5500 ft width 150 ft
---- / hdg 352

Location; KOLM
Day. 21 / Time. 07.54 Zulu
* Altimeter: 30.05
* Temperature: 03° c. 37.4°f.
* Wind from: 000° Speed 00 kn.
Dewpoint: 03° c.
Visibility: 1/4 Statute Miles.
Conditions: Fog.

KOLM 210754Z AUTO 00000KT 1/4SM FG VV001 03/03 A3005 RMK AO2 SLP176 T00330033 401330028


Wind - Calm.

 
 
jpsmedia.com for Web Design worldairports.se 2018   terms of use